sensor_id;sensor_type;location;lat;lon;timestamp;pressure;altitude;pressure_sealevel;temperature;humidity
68855;BME280;69984;-43.570;172.580;2023-07-31T00:01:18;100922.13;;;17.38;52.38
68855;BME280;69984;-43.570;172.580;2023-07-31T00:03:46;100910.50;;;17.54;51.14
68855;BME280;69984;-43.570;172.580;2023-07-31T00:06:13;100904.50;;;17.60;51.26
68855;BME280;69984;-43.570;172.580;2023-07-31T00:08:40;100895.50;;;17.76;51.73
68855;BME280;69984;-43.570;172.580;2023-07-31T00:11:07;100883.19;;;17.68;48.95
68855;BME280;69984;-43.570;172.580;2023-07-31T00:13:34;100874.97;;;17.63;47.24
68855;BME280;69984;-43.570;172.580;2023-07-31T00:16:01;100863.09;;;17.80;48.26
68855;BME280;69984;-43.570;172.580;2023-07-31T00:18:29;100859.13;;;18.12;47.98
68855;BME280;69984;-43.570;172.580;2023-07-31T00:20:56;100858.50;;;18.31;46.96
68855;BME280;69984;-43.570;172.580;2023-07-31T00:23:23;100861.84;;;18.61;46.61
68855;BME280;69984;-43.570;172.580;2023-07-31T00:25:50;100856.28;;;18.56;44.47
68855;BME280;69984;-43.570;172.580;2023-07-31T00:28:17;100848.97;;;18.65;46.25
68855;BME280;69984;-43.570;172.580;2023-07-31T00:30:44;100837.28;;;18.53;45.54
68855;BME280;69984;-43.570;172.580;2023-07-31T00:33:11;100829.41;;;18.44;45.21
68855;BME280;69984;-43.570;172.580;2023-07-31T00:35:38;100827.38;;;18.68;45.13
68855;BME280;69984;-43.570;172.580;2023-07-31T00:38:05;100825.38;;;18.76;43.88
68855;BME280;69984;-43.570;172.580;2023-07-31T00:40:36;100825.34;;;18.48;45.92
68855;BME280;69984;-43.570;172.580;2023-07-31T00:43:04;100814.56;;;18.50;45.49
68855;BME280;69984;-43.570;172.580;2023-07-31T00:45:31;100809.56;;;18.96;42.34
68855;BME280;69984;-43.570;172.580;2023-07-31T00:47:59;100801.06;;;19.20;43.96
68855;BME280;69984;-43.570;172.580;2023-07-31T00:50:27;100795.16;;;19.25;43.39
68855;BME280;69984;-43.570;172.580;2023-07-31T00:52:55;100788.84;;;19.32;42.91
68855;BME280;69984;-43.570;172.580;2023-07-31T00:55:22;100785.34;;;18.78;44.60
68855;BME280;69984;-43.570;172.580;2023-07-31T00:57:49;100782.94;;;18.89;45.31
68855;BME280;69984;-43.570;172.580;2023-07-31T01:00:19;100774.84;;;19.11;44.56
68855;BME280;69984;-43.570;172.580;2023-07-31T01:02:46;100766.47;;;19.07;45.50
68855;BME280;69984;-43.570;172.580;2023-07-31T01:05:14;100759.94;;;19.03;46.21
68855;BME280;69984;-43.570;172.580;2023-07-31T01:08:04;100766.44;;;19.81;43.41
68855;BME280;69984;-43.570;172.580;2023-07-31T01:10:41;100763.59;;;19.69;43.55
68855;BME280;69984;-43.570;172.580;2023-07-31T01:13:11;100752.56;;;19.79;43.90
68855;BME280;69984;-43.570;172.580;2023-07-31T01:15:39;100746.00;;;20.01;45.12
68855;BME280;69984;-43.570;172.580;2023-07-31T01:18:06;100741.63;;;20.59;41.90
68855;BME280;69984;-43.570;172.580;2023-07-31T01:20:33;100723.19;;;21.15;42.15
68855;BME280;69984;-43.570;172.580;2023-07-31T01:23:22;100730.16;;;20.65;42.45
68855;BME280;69984;-43.570;172.580;2023-07-31T01:26:33;100730.22;;;21.03;41.84
68855;BME280;69984;-43.570;172.580;2023-07-31T01:29:14;100719.03;;;20.81;42.54
68855;BME280;69984;-43.570;172.580;2023-07-31T01:31:47;100717.47;;;21.05;42.14
68855;BME280;69984;-43.570;172.580;2023-07-31T01:34:16;100695.91;;;21.20;41.74
68855;BME280;69984;-43.570;172.580;2023-07-31T01:36:44;100703.63;;;20.83;41.40
68855;BME280;69984;-43.570;172.580;2023-07-31T01:39:11;100693.66;;;21.17;40.68
68855;BME280;69984;-43.570;172.580;2023-07-31T01:41:38;100699.34;;;20.82;41.59
68855;BME280;69984;-43.570;172.580;2023-07-31T01:44:06;100685.28;;;21.13;39.75
68855;BME280;69984;-43.570;172.580;2023-07-31T01:46:33;100674.13;;;21.54;42.12
68855;BME280;69984;-43.570;172.580;2023-07-31T01:49:00;100682.44;;;21.89;40.53
68855;BME280;69984;-43.570;172.580;2023-07-31T01:51:27;100669.72;;;21.91;39.99
68855;BME280;69984;-43.570;172.580;2023-07-31T01:53:54;100669.31;;;21.07;41.50
68855;BME280;69984;-43.570;172.580;2023-07-31T01:56:21;100670.75;;;21.03;40.67
68855;BME280;69984;-43.570;172.580;2023-07-31T01:58:48;100666.94;;;20.48;41.85
68855;BME280;69984;-43.570;172.580;2023-07-31T02:01:15;100667.09;;;21.60;40.22
68855;BME280;69984;-43.570;172.580;2023-07-31T02:03:42;100659.66;;;21.12;41.84
68855;BME280;69984;-43.570;172.580;2023-07-31T02:06:09;100662.59;;;21.29;41.44
68855;BME280;69984;-43.570;172.580;2023-07-31T02:08:36;100656.16;;;21.12;41.51
68855;BME280;69984;-43.570;172.580;2023-07-31T02:11:03;100644.19;;;22.20;39.47
68855;BME280;69984;-43.570;172.580;2023-07-31T02:13:31;100646.28;;;21.93;40.56
68855;BME280;69984;-43.570;172.580;2023-07-31T02:15:58;100644.25;;;21.88;40.09
68855;BME280;69984;-43.570;172.580;2023-07-31T02:18:25;100642.63;;;22.30;39.84
68855;BME280;69984;-43.570;172.580;2023-07-31T02:20:52;100642.09;;;23.18;38.06
68855;BME280;69984;-43.570;172.580;2023-07-31T02:23:20;100647.19;;;23.61;37.13
68855;BME280;69984;-43.570;172.580;2023-07-31T02:25:47;100635.91;;;23.70;36.81
68855;BME280;69984;-43.570;172.580;2023-07-31T02:28:14;100632.19;;;22.77;38.18
68855;BME280;69984;-43.570;172.580;2023-07-31T02:30:44;100625.56;;;23.09;37.24
68855;BME280;69984;-43.570;172.580;2023-07-31T02:33:15;100622.06;;;23.09;37.50
68855;BME280;69984;-43.570;172.580;2023-07-31T02:35:45;100624.28;;;23.88;37.01
68855;BME280;69984;-43.570;172.580;2023-07-31T02:38:12;100621.81;;;23.86;36.45
68855;BME280;69984;-43.570;172.580;2023-07-31T02:40:41;100621.03;;;23.10;36.46
68855;BME280;69984;-43.570;172.580;2023-07-31T02:43:09;100611.41;;;22.61;37.97
68855;BME280;69984;-43.570;172.580;2023-07-31T02:45:36;100618.22;;;22.27;37.82
68855;BME280;69984;-43.570;172.580;2023-07-31T02:48:03;100618.06;;;22.22;38.83
68855;BME280;69984;-43.570;172.580;2023-07-31T02:50:30;100617.38;;;21.65;39.51
68855;BME280;69984;-43.570;172.580;2023-07-31T02:52:58;100616.53;;;20.46;42.08
68855;BME280;69984;-43.570;172.580;2023-07-31T02:55:25;100618.44;;;20.13;42.42
68855;BME280;69984;-43.570;172.580;2023-07-31T02:57:53;100612.59;;;19.32;45.14
68855;BME280;69984;-43.570;172.580;2023-07-31T03:00:20;100599.25;;;18.25;47.31
68855;BME280;69984;-43.570;172.580;2023-07-31T03:02:47;100612.38;;;19.07;46.11
68855;BME280;69984;-43.570;172.580;2023-07-31T03:05:14;100605.91;;;19.49;44.34
68855;BME280;69984;-43.570;172.580;2023-07-31T03:07:41;100598.91;;;19.74;43.78
68855;BME280;69984;-43.570;172.580;2023-07-31T03:10:09;100593.56;;;19.87;43.65
68855;BME280;69984;-43.570;172.580;2023-07-31T03:12:36;100593.69;;;20.19;43.76
68855;BME280;69984;-43.570;172.580;2023-07-31T03:15:03;100593.38;;;19.30;45.26
68855;BME280;69984;-43.570;172.580;2023-07-31T03:17:31;100588.50;;;19.66;45.67
68855;BME280;69984;-43.570;172.580;2023-07-31T03:19:58;100584.94;;;18.74;47.25
68855;BME280;69984;-43.570;172.580;2023-07-31T03:22:25;100598.72;;;19.69;45.35
68855;BME280;69984;-43.570;172.580;2023-07-31T03:24:52;100594.97;;;19.97;45.10
68855;BME280;69984;-43.570;172.580;2023-07-31T03:27:19;100581.78;;;20.28;44.65
68855;BME280;69984;-43.570;172.580;2023-07-31T03:29:46;100587.94;;;20.28;44.01
68855;BME280;69984;-43.570;172.580;2023-07-31T03:32:15;100592.75;;;19.87;45.03
68855;BME280;69984;-43.570;172.580;2023-07-31T03:34:42;100584.00;;;19.47;45.22
68855;BME280;69984;-43.570;172.580;2023-07-31T03:37:09;100576.22;;;19.00;46.40
68855;BME280;69984;-43.570;172.580;2023-07-31T03:39:36;100569.28;;;18.38;48.02
68855;BME280;69984;-43.570;172.580;2023-07-31T03:42:03;100568.59;;;18.16;48.29
68855;BME280;69984;-43.570;172.580;2023-07-31T03:44:30;100562.22;;;17.70;49.08
68855;BME280;69984;-43.570;172.580;2023-07-31T03:46:57;100564.94;;;18.24;47.63
68855;BME280;69984;-43.570;172.580;2023-07-31T03:49:25;100555.19;;;18.37;48.11
68855;BME280;69984;-43.570;172.580;2023-07-31T03:51:52;100559.06;;;17.87;49.20
68855;BME280;69984;-43.570;172.580;2023-07-31T03:54:19;100560.28;;;18.26;48.41
68855;BME280;69984;-43.570;172.580;2023-07-31T03:56:46;100561.97;;;18.40;47.26
68855;BME280;69984;-43.570;172.580;2023-07-31T03:59:13;100560.00;;;18.08;48.78
68855;BME280;69984;-43.570;172.580;2023-07-31T04:01:40;100556.22;;;17.89;49.06
68855;BME280;69984;-43.570;172.580;2023-07-31T04:04:07;100551.66;;;17.21;50.40
68855;BME280;69984;-43.570;172.580;2023-07-31T04:06:34;100558.03;;;17.26;50.21
68855;BME280;69984;-43.570;172.580;2023-07-31T04:09:02;100548.94;;;17.14;51.14
68855;BME280;69984;-43.570;172.580;2023-07-31T04:11:29;100551.66;;;17.21;51.40
68855;BME280;69984;-43.570;172.580;2023-07-31T04:13:56;100526.13;;;16.14;54.38
68855;BME280;69984;-43.570;172.580;2023-07-31T04:16:23;100521.00;;;16.48;53.31
68855;BME280;69984;-43.570;172.580;2023-07-31T04:18:50;100516.53;;;16.63;52.90
68855;BME280;69984;-43.570;172.580;2023-07-31T04:21:17;100509.59;;;16.62;52.94
68855;BME280;69984;-43.570;172.580;2023-07-31T04:23:46;100498.19;;;16.47;54.45
68855;BME280;69984;-43.570;172.580;2023-07-31T04:26:13;100528.94;;;16.12;54.24
68855;BME280;69984;-43.570;172.580;2023-07-31T04:28:40;100524.03;;;15.94;53.44
68855;BME280;69984;-43.570;172.580;2023-07-31T04:31:07;100524.44;;;17.06;49.70
68855;BME280;69984;-43.570;172.580;2023-07-31T04:33:35;100537.63;;;16.78;51.32
68855;BME280;69984;-43.570;172.580;2023-07-31T04:36:02;100539.09;;;16.44;52.57
68855;BME280;69984;-43.570;172.580;2023-07-31T04:38:29;100535.50;;;16.88;51.78
68855;BME280;69984;-43.570;172.580;2023-07-31T04:40:56;100526.97;;;16.71;51.46
68855;BME280;69984;-43.570;172.580;2023-07-31T04:43:23;100542.81;;;16.50;52.88
68855;BME280;69984;-43.570;172.580;2023-07-31T04:45:50;100519.72;;;16.80;52.32
68855;BME280;69984;-43.570;172.580;2023-07-31T04:48:17;100541.34;;;16.62;51.65
68855;BME280;69984;-43.570;172.580;2023-07-31T04:50:44;100543.81;;;16.64;51.06
68855;BME280;69984;-43.570;172.580;2023-07-31T04:53:11;100538.25;;;16.44;52.68
68855;BME280;69984;-43.570;172.580;2023-07-31T04:55:38;100535.63;;;16.44;50.56
68855;BME280;69984;-43.570;172.580;2023-07-31T04:58:05;100535.97;;;17.19;43.50
68855;BME280;69984;-43.570;172.580;2023-07-31T05:00:32;100535.09;;;17.68;41.03
68855;BME280;69984;-43.570;172.580;2023-07-31T05:02:59;100536.94;;;17.74;42.21
68855;BME280;69984;-43.570;172.580;2023-07-31T05:05:26;100538.09;;;17.92;41.90
68855;BME280;69984;-43.570;172.580;2023-07-31T05:07:53;100530.91;;;17.80;43.04
68855;BME280;69984;-43.570;172.580;2023-07-31T05:10:20;100536.91;;;17.67;43.33
68855;BME280;69984;-43.570;172.580;2023-07-31T05:12:47;100535.25;;;17.60;42.68
68855;BME280;69984;-43.570;172.580;2023-07-31T05:15:14;100539.47;;;17.54;42.16
68855;BME280;69984;-43.570;172.580;2023-07-31T05:17:42;100543.22;;;17.38;43.44
68855;BME280;69984;-43.570;172.580;2023-07-31T05:20:09;100543.19;;;17.60;45.16
68855;BME280;69984;-43.570;172.580;2023-07-31T05:22:36;100528.22;;;16.96;46.09
68855;BME280;69984;-43.570;172.580;2023-07-31T05:25:04;100540.28;;;16.99;41.44
68855;BME280;69984;-43.570;172.580;2023-07-31T05:27:32;100533.03;;;16.86;41.90
68855;BME280;69984;-43.570;172.580;2023-07-31T05:29:59;100535.16;;;16.97;41.47
68855;BME280;69984;-43.570;172.580;2023-07-31T05:32:26;100552.31;;;17.02;41.54
68855;BME280;69984;-43.570;172.580;2023-07-31T05:34:53;100552.50;;;17.00;42.88
68855;BME280;69984;-43.570;172.580;2023-07-31T05:37:21;100552.25;;;17.16;42.88
68855;BME280;69984;-43.570;172.580;2023-07-31T05:39:48;100536.66;;;16.85;43.79
68855;BME280;69984;-43.570;172.580;2023-07-31T05:42:15;100538.63;;;16.41;42.83
68855;BME280;69984;-43.570;172.580;2023-07-31T05:44:42;100528.22;;;16.18;39.81
68855;BME280;69984;-43.570;172.580;2023-07-31T05:47:10;100517.41;;;16.34;38.50
68855;BME280;69984;-43.570;172.580;2023-07-31T05:49:37;100511.31;;;16.55;37.60
68855;BME280;69984;-43.570;172.580;2023-07-31T05:52:05;100503.78;;;16.73;35.88
68855;BME280;69984;-43.570;172.580;2023-07-31T05:54:32;100516.38;;;16.92;36.93
68855;BME280;69984;-43.570;172.580;2023-07-31T05:57:00;100517.56;;;17.11;37.55
68855;BME280;69984;-43.570;172.580;2023-07-31T05:59:27;100523.53;;;16.92;36.85
68855;BME280;69984;-43.570;172.580;2023-07-31T06:01:54;100529.75;;;16.63;37.20
68855;BME280;69984;-43.570;172.580;2023-07-31T06:04:21;100538.25;;;16.80;37.51
68855;BME280;69984;-43.570;172.580;2023-07-31T06:06:48;100529.75;;;16.63;38.65
68855;BME280;69984;-43.570;172.580;2023-07-31T06:09:15;100551.22;;;16.54;39.04
68855;BME280;69984;-43.570;172.580;2023-07-31T06:11:42;100525.84;;;16.44;37.55
68855;BME280;69984;-43.570;172.580;2023-07-31T06:14:09;100542.44;;;16.53;37.76
68855;BME280;69984;-43.570;172.580;2023-07-31T06:16:36;100538.75;;;16.33;37.35
68855;BME280;69984;-43.570;172.580;2023-07-31T06:19:03;100535.97;;;16.56;38.54
68855;BME280;69984;-43.570;172.580;2023-07-31T06:21:31;100529.47;;;16.22;38.88
68855;BME280;69984;-43.570;172.580;2023-07-31T06:23:58;100532.69;;;16.54;37.90
68855;BME280;69984;-43.570;172.580;2023-07-31T06:26:25;100544.44;;;16.66;37.78
68855;BME280;69984;-43.570;172.580;2023-07-31T06:28:52;100536.66;;;16.64;38.13
68855;BME280;69984;-43.570;172.580;2023-07-31T06:31:19;100540.28;;;16.78;37.61
68855;BME280;69984;-43.570;172.580;2023-07-31T06:33:50;100550.50;;;16.81;37.60
68855;BME280;69984;-43.570;172.580;2023-07-31T06:36:18;100555.28;;;16.92;37.72
68855;BME280;69984;-43.570;172.580;2023-07-31T06:38:45;100565.78;;;17.07;38.08
68855;BME280;69984;-43.570;172.580;2023-07-31T06:41:12;100563.03;;;16.72;39.31
68855;BME280;69984;-43.570;172.580;2023-07-31T06:43:40;100561.91;;;16.45;39.91
68855;BME280;69984;-43.570;172.580;2023-07-31T06:46:07;100562.44;;;16.56;40.07
68855;BME280;69984;-43.570;172.580;2023-07-31T06:48:35;100568.22;;;16.30;40.20
68855;BME280;69984;-43.570;172.580;2023-07-31T06:51:03;100562.63;;;16.04;41.01
68855;BME280;69984;-43.570;172.580;2023-07-31T06:53:31;100560.59;;;15.91;41.18
68855;BME280;69984;-43.570;172.580;2023-07-31T06:55:58;100533.66;;;15.52;41.06
68855;BME280;69984;-43.570;172.580;2023-07-31T06:58:25;100557.59;;;15.94;38.92
68855;BME280;69984;-43.570;172.580;2023-07-31T07:00:52;100568.56;;;15.39;42.82
68855;BME280;69984;-43.570;172.580;2023-07-31T07:03:19;100569.47;;;15.46;41.96
68855;BME280;69984;-43.570;172.580;2023-07-31T07:05:50;100577.91;;;15.49;41.94
68855;BME280;69984;-43.570;172.580;2023-07-31T07:08:17;100569.06;;;15.57;41.69
68855;BME280;69984;-43.570;172.580;2023-07-31T07:10:44;100560.06;;;15.29;40.99
68855;BME280;69984;-43.570;172.580;2023-07-31T07:13:11;100555.94;;;15.12;41.57
68855;BME280;69984;-43.570;172.580;2023-07-31T07:15:39;100554.34;;;15.02;42.80
68855;BME280;69984;-43.570;172.580;2023-07-31T07:18:06;100547.84;;;15.28;41.27
68855;BME280;69984;-43.570;172.580;2023-07-31T07:20:33;100544.09;;;15.60;40.63
68855;BME280;69984;-43.570;172.580;2023-07-31T07:23:01;100540.72;;;15.95;39.86
68855;BME280;69984;-43.570;172.580;2023-07-31T07:25:28;100530.81;;;15.97;40.05
68855;BME280;69984;-43.570;172.580;2023-07-31T07:27:55;100536.19;;;16.04;39.73
68855;BME280;69984;-43.570;172.580;2023-07-31T07:30:22;100519.03;;;15.99;39.61
68855;BME280;69984;-43.570;172.580;2023-07-31T07:32:51;100521.94;;;16.05;39.01
68855;BME280;69984;-43.570;172.580;2023-07-31T07:35:18;100524.50;;;15.98;39.65
68855;BME280;69984;-43.570;172.580;2023-07-31T07:37:45;100516.84;;;15.88;41.11
68855;BME280;69984;-43.570;172.580;2023-07-31T07:40:15;100531.25;;;15.57;41.12
68855;BME280;69984;-43.570;172.580;2023-07-31T07:42:42;100526.59;;;15.88;41.10
68855;BME280;69984;-43.570;172.580;2023-07-31T07:45:09;100535.06;;;15.02;43.14
68855;BME280;69984;-43.570;172.580;2023-07-31T07:47:40;100534.81;;;15.49;41.89
68855;BME280;69984;-43.570;172.580;2023-07-31T07:50:08;100532.56;;;15.75;39.84
68855;BME280;69984;-43.570;172.580;2023-07-31T07:52:35;100532.25;;;15.56;39.37
68855;BME280;69984;-43.570;172.580;2023-07-31T07:55:02;100522.22;;;15.80;39.81
68855;BME280;69984;-43.570;172.580;2023-07-31T07:57:30;100517.16;;;15.79;41.17
68855;BME280;69984;-43.570;172.580;2023-07-31T07:59:58;100521.31;;;15.59;41.77
68855;BME280;69984;-43.570;172.580;2023-07-31T08:02:25;100525.81;;;15.21;45.32
68855;BME280;69984;-43.570;172.580;2023-07-31T08:04:52;100516.75;;;15.00;44.18
68855;BME280;69984;-43.570;172.580;2023-07-31T08:07:19;100523.59;;;14.95;44.88
68855;BME280;69984;-43.570;172.580;2023-07-31T08:09:46;100522.47;;;14.67;44.78
68855;BME280;69984;-43.570;172.580;2023-07-31T08:12:13;100519.28;;;15.31;40.88
68855;BME280;69984;-43.570;172.580;2023-07-31T08:14:40;100511.41;;;15.61;40.04
68855;BME280;69984;-43.570;172.580;2023-07-31T08:17:07;100504.81;;;15.42;41.87
68855;BME280;69984;-43.570;172.580;2023-07-31T08:19:35;100502.34;;;15.26;42.22
68855;BME280;69984;-43.570;172.580;2023-07-31T08:22:02;100493.41;;;15.41;41.04
68855;BME280;69984;-43.570;172.580;2023-07-31T08:24:29;100481.81;;;15.51;41.48
68855;BME280;69984;-43.570;172.580;2023-07-31T08:26:56;100483.44;;;15.52;41.21
68855;BME280;69984;-43.570;172.580;2023-07-31T08:29:24;100490.22;;;15.31;42.05
68855;BME280;69984;-43.570;172.580;2023-07-31T08:31:51;100477.66;;;15.33;42.37
68855;BME280;69984;-43.570;172.580;2023-07-31T08:34:18;100487.91;;;15.14;43.25
68855;BME280;69984;-43.570;172.580;2023-07-31T08:36:45;100493.06;;;14.92;43.31
68855;BME280;69984;-43.570;172.580;2023-07-31T08:39:12;100493.00;;;14.63;45.17
68855;BME280;69984;-43.570;172.580;2023-07-31T08:41:40;100490.63;;;14.68;45.75
68855;BME280;69984;-43.570;172.580;2023-07-31T08:44:10;100502.78;;;14.77;44.69
68855;BME280;69984;-43.570;172.580;2023-07-31T08:46:40;100497.44;;;14.63;46.08
68855;BME280;69984;-43.570;172.580;2023-07-31T08:49:07;100489.13;;;14.20;46.97
68855;BME280;69984;-43.570;172.580;2023-07-31T08:51:36;100488.34;;;13.73;47.32
68855;BME280;69984;-43.570;172.580;2023-07-31T08:54:04;100476.09;;;13.88;47.61
68855;BME280;69984;-43.570;172.580;2023-07-31T08:56:32;100474.69;;;13.22;48.45
68855;BME280;69984;-43.570;172.580;2023-07-31T08:59:02;100468.53;;;13.46;47.89
68855;BME280;69984;-43.570;172.580;2023-07-31T09:01:33;100459.66;;;13.47;47.53
68855;BME280;69984;-43.570;172.580;2023-07-31T09:04:04;100467.09;;;13.27;47.99
68855;BME280;69984;-43.570;172.580;2023-07-31T09:06:31;100460.22;;;13.26;46.98
68855;BME280;69984;-43.570;172.580;2023-07-31T09:08:58;100457.53;;;13.42;47.03
68855;BME280;69984;-43.570;172.580;2023-07-31T09:11:26;100466.28;;;13.02;48.31
68855;BME280;69984;-43.570;172.580;2023-07-31T09:13:57;100458.41;;;13.19;47.74
68855;BME280;69984;-43.570;172.580;2023-07-31T09:16:28;100459.31;;;13.42;46.62
68855;BME280;69984;-43.570;172.580;2023-07-31T09:18:58;100460.00;;;13.36;46.95
68855;BME280;69984;-43.570;172.580;2023-07-31T09:21:28;100469.66;;;13.51;45.24
68855;BME280;69984;-43.570;172.580;2023-07-31T09:23:56;100469.59;;;13.13;46.71
68855;BME280;69984;-43.570;172.580;2023-07-31T09:26:36;100463.44;;;13.44;46.52
68855;BME280;69984;-43.570;172.580;2023-07-31T09:29:07;100466.03;;;13.52;45.16
68855;BME280;69984;-43.570;172.580;2023-07-31T09:31:45;100472.16;;;13.84;44.07
68855;BME280;69984;-43.570;172.580;2023-07-31T09:34:12;100485.78;;;13.95;44.46
68855;BME280;69984;-43.570;172.580;2023-07-31T09:36:49;100476.97;;;14.11;44.56
68855;BME280;69984;-43.570;172.580;2023-07-31T09:39:18;100476.47;;;13.85;45.53
68855;BME280;69984;-43.570;172.580;2023-07-31T09:41:54;100467.38;;;13.87;45.31
68855;BME280;69984;-43.570;172.580;2023-07-31T09:44:22;100463.88;;;13.64;45.35
68855;BME280;69984;-43.570;172.580;2023-07-31T09:47:03;100465.69;;;13.64;45.44
68855;BME280;69984;-43.570;172.580;2023-07-31T09:49:30;100442.75;;;13.72;44.89
68855;BME280;69984;-43.570;172.580;2023-07-31T09:51:58;100449.19;;;13.70;45.36
68855;BME280;69984;-43.570;172.580;2023-07-31T09:54:25;100445.38;;;13.33;46.64
68855;BME280;69984;-43.570;172.580;2023-07-31T09:56:52;100460.56;;;12.91;48.12
68855;BME280;69984;-43.570;172.580;2023-07-31T09:59:21;100436.19;;;13.29;47.31
68855;BME280;69984;-43.570;172.580;2023-07-31T10:01:49;100444.06;;;13.29;46.85
68855;BME280;69984;-43.570;172.580;2023-07-31T10:04:18;100433.66;;;13.44;46.53
68855;BME280;69984;-43.570;172.580;2023-07-31T10:06:54;100436.88;;;13.15;47.53
68855;BME280;69984;-43.570;172.580;2023-07-31T10:09:21;100429.66;;;12.93;48.19
68855;BME280;69984;-43.570;172.580;2023-07-31T10:11:58;100422.91;;;12.74;48.79
68855;BME280;69984;-43.570;172.580;2023-07-31T10:14:26;100412.06;;;12.93;47.71
68855;BME280;69984;-43.570;172.580;2023-07-31T10:16:55;100406.75;;;13.18;47.11
68855;BME280;69984;-43.570;172.580;2023-07-31T10:19:24;100404.72;;;13.44;46.65
68855;BME280;69984;-43.570;172.580;2023-07-31T10:21:53;100404.31;;;13.00;48.71
68855;BME280;69984;-43.570;172.580;2023-07-31T10:24:24;100401.34;;;13.03;48.55
68855;BME280;69984;-43.570;172.580;2023-07-31T10:26:52;100418.94;;;13.19;47.17
68855;BME280;69984;-43.570;172.580;2023-07-31T10:29:20;100412.97;;;13.33;47.02
68855;BME280;69984;-43.570;172.580;2023-07-31T10:31:51;100418.13;;;13.18;48.03
68855;BME280;69984;-43.570;172.580;2023-07-31T10:34:19;100413.34;;;13.14;48.31
68855;BME280;69984;-43.570;172.580;2023-07-31T10:36:46;100411.25;;;12.52;49.82
68855;BME280;69984;-43.570;172.580;2023-07-31T10:39:35;100401.22;;;11.99;51.98
68855;BME280;69984;-43.570;172.580;2023-07-31T10:42:13;100402.31;;;11.81;51.86
68855;BME280;69984;-43.570;172.580;2023-07-31T10:44:49;100414.84;;;11.95;51.19
68855;BME280;69984;-43.570;172.580;2023-07-31T10:47:17;100399.66;;;11.73;51.94
68855;BME280;69984;-43.570;172.580;2023-07-31T10:49:47;100402.22;;;11.57;52.94
68855;BME280;69984;-43.570;172.580;2023-07-31T10:52:20;100394.84;;;11.68;52.71
68855;BME280;69984;-43.570;172.580;2023-07-31T10:55:16;100382.19;;;11.56;53.17
68855;BME280;69984;-43.570;172.580;2023-07-31T10:57:48;100387.59;;;12.04;52.77
68855;BME280;69984;-43.570;172.580;2023-07-31T11:00:20;100373.81;;;12.18;52.28
68855;BME280;69984;-43.570;172.580;2023-07-31T11:03:01;100376.94;;;12.06;52.46
68855;BME280;69984;-43.570;172.580;2023-07-31T11:08:24;100407.06;;;11.10;54.71
68855;BME280;69984;-43.570;172.580;2023-07-31T11:11:06;100396.38;;;10.77;55.95
68855;BME280;69984;-43.570;172.580;2023-07-31T11:13:47;100414.47;;;10.63;56.86
68855;BME280;69984;-43.570;172.580;2023-07-31T11:16:26;100409.75;;;11.18;55.09
68855;BME280;69984;-43.570;172.580;2023-07-31T11:18:54;100409.94;;;10.90;56.30
68855;BME280;69984;-43.570;172.580;2023-07-31T11:21:23;100421.84;;;11.11;55.48
68855;BME280;69984;-43.570;172.580;2023-07-31T11:23:57;100434.69;;;10.35;56.31
68855;BME280;69984;-43.570;172.580;2023-07-31T11:26:24;100431.59;;;9.32;59.53
68855;BME280;69984;-43.570;172.580;2023-07-31T11:28:52;100420.53;;;10.10;58.31
68855;BME280;69984;-43.570;172.580;2023-07-31T11:31:19;100402.06;;;10.47;57.35
68855;BME280;69984;-43.570;172.580;2023-07-31T11:33:46;100412.66;;;10.10;58.08
68855;BME280;69984;-43.570;172.580;2023-07-31T11:36:18;100419.03;;;9.63;59.65
68855;BME280;69984;-43.570;172.580;2023-07-31T11:38:45;100412.97;;;10.07;58.79
68855;BME280;69984;-43.570;172.580;2023-07-31T11:41:15;100400.66;;;10.17;59.49
68855;BME280;69984;-43.570;172.580;2023-07-31T11:43:46;100388.06;;;10.82;55.94
68855;BME280;69984;-43.570;172.580;2023-07-31T11:46:13;100375.72;;;11.34;55.55
68855;BME280;69984;-43.570;172.580;2023-07-31T11:48:41;100352.03;;;11.60;54.38
68855;BME280;69984;-43.570;172.580;2023-07-31T11:51:10;100328.44;;;11.68;54.18
68855;BME280;69984;-43.570;172.580;2023-07-31T11:53:44;100356.47;;;11.17;55.06
68855;BME280;69984;-43.570;172.580;2023-07-31T11:56:14;100349.50;;;10.74;56.92
68855;BME280;69984;-43.570;172.580;2023-07-31T11:58:47;100341.00;;;10.72;56.57
68855;BME280;69984;-43.570;172.580;2023-07-31T12:01:18;100347.09;;;10.81;56.24
68855;BME280;69984;-43.570;172.580;2023-07-31T12:03:47;100347.88;;;10.73;57.36
68855;BME280;69984;-43.570;172.580;2023-07-31T12:06:14;100315.69;;;10.63;57.58
68855;BME280;69984;-43.570;172.580;2023-07-31T12:08:41;100315.56;;;10.65;58.47
68855;BME280;69984;-43.570;172.580;2023-07-31T12:11:09;100312.16;;;10.46;57.87
68855;BME280;69984;-43.570;172.580;2023-07-31T12:13:36;100299.88;;;9.86;60.14
68855;BME280;69984;-43.570;172.580;2023-07-31T12:16:04;100279.75;;;10.22;59.07
68855;BME280;69984;-43.570;172.580;2023-07-31T12:18:36;100278.59;;;10.24;59.05
68855;BME280;69984;-43.570;172.580;2023-07-31T12:21:08;100293.72;;;10.30;59.15
68855;BME280;69984;-43.570;172.580;2023-07-31T12:23:36;100301.31;;;10.16;60.01
68855;BME280;69984;-43.570;172.580;2023-07-31T12:26:11;100292.53;;;9.72;60.60
68855;BME280;69984;-43.570;172.580;2023-07-31T12:28:49;100298.09;;;9.69;60.53
68855;BME280;69984;-43.570;172.580;2023-07-31T12:31:21;100287.22;;;9.28;61.60